Weather at Naval Wepons Station Helipad

Public forecast

Using degrees Fahrenheit for public forecast. Weather courtesy of forecast.io.

Closest aviation weather report (METAR) to Naval Wepons Station Helipad

Closest report is Williamsburg Jamestown Airport, 7.0 nm (13.0 km) WSW. Retrieved 2020/09/29 15:35 UTC (0 seconds ago):

KJGG 291535Z AUTO 00000KT 10SM BKN011 OVC014 24/23 A2987 RMK AO1

Closest aviation forecast (TAF) to Naval Wepons Station Helipad

Closest forecast is Felker Army Air Field, 8.3 nm (15.4 km) SSW. Retrieved 2020/09/29 10:03 UTC (5 hours ago):

TAF TAF KFAF 291000Z 2910/3016 VRB06KT 9999 SCT030 QNH2985INS BECMG 2910/2911 VRB06KT 8000 -SHRA BKN025 QNH2983INS BECMG 2914/2915 17009KT 6000 SHRA BKN025 OVC030 QNH2980INS TEMPO 2915/2918 19015G20KT 4800 -TSRA OVC015CB BECMG 2920/2921 17012KT 6000 SHRA BKN010 OVC020 QNH2971INS BECMG 3001/3002 26012KT 3200 +SHRA BKN007 OVC015 QNH2965INS BECMG 3014/3015 26009KT 9999 NSW SCT030 QNH2975INS TX25/2917Z TN20/3008Z